sensor_id;sensor_type;location;lat;lon;timestamp;pressure;altitude;pressure_sealevel;temperature;humidity
76229;BME280;65021;53.174;18.160;2023-06-22T00:01:20;101303.48;;;18.40;83.25
76229;BME280;65021;53.174;18.160;2023-06-22T00:03:48;101303.37;;;18.38;83.52
76229;BME280;65021;53.174;18.160;2023-06-22T00:06:15;101303.48;;;18.35;83.57
76229;BME280;65021;53.174;18.160;2023-06-22T00:08:41;101305.36;;;18.31;83.51
76229;BME280;65021;53.174;18.160;2023-06-22T00:11:08;101309.81;;;18.29;83.68
76229;BME280;65021;53.174;18.160;2023-06-22T00:13:35;101313.63;;;18.31;83.81
76229;BME280;65021;53.174;18.160;2023-06-22T00:16:01;101316.22;;;18.32;83.89
76229;BME280;65021;53.174;18.160;2023-06-22T00:18:28;101321.28;;;18.29;84.09
76229;BME280;65021;53.174;18.160;2023-06-22T00:20:56;101321.13;;;18.26;84.16
76229;BME280;65021;53.174;18.160;2023-06-22T00:23:24;101323.42;;;18.26;84.14
76229;BME280;65021;53.174;18.160;2023-06-22T00:25:51;101326.20;;;18.24;84.16
76229;BME280;65021;53.174;18.160;2023-06-22T00:28:18;101326.59;;;18.21;84.06
76229;BME280;65021;53.174;18.160;2023-06-22T00:30:45;101327.11;;;18.17;84.26
76229;BME280;65021;53.174;18.160;2023-06-22T00:33:12;101324.30;;;18.13;84.59
76229;BME280;65021;53.174;18.160;2023-06-22T00:35:38;101324.73;;;18.11;84.52
76229;BME280;65021;53.174;18.160;2023-06-22T00:38:07;101326.88;;;18.06;84.51
76229;BME280;65021;53.174;18.160;2023-06-22T00:40:34;101328.64;;;18.07;84.63
76229;BME280;65021;53.174;18.160;2023-06-22T00:43:01;101326.71;;;18.06;84.55
76229;BME280;65021;53.174;18.160;2023-06-22T00:45:28;101330.38;;;18.08;84.48
76229;BME280;65021;53.174;18.160;2023-06-22T00:47:56;101335.70;;;18.11;84.40
76229;BME280;65021;53.174;18.160;2023-06-22T00:50:25;101335.10;;;18.15;84.58
76229;BME280;65021;53.174;18.160;2023-06-22T00:52:53;101335.49;;;18.16;84.41
76229;BME280;65021;53.174;18.160;2023-06-22T00:55:23;101334.80;;;18.16;84.45
76229;BME280;65021;53.174;18.160;2023-06-22T00:57:49;101330.98;;;18.20;84.36
76229;BME280;65021;53.174;18.160;2023-06-22T01:00:16;101332.55;;;18.25;84.41
76229;BME280;65021;53.174;18.160;2023-06-22T01:02:46;101332.33;;;18.32;84.33
76229;BME280;65021;53.174;18.160;2023-06-22T01:05:14;101332.13;;;18.39;84.12
76229;BME280;65021;53.174;18.160;2023-06-22T01:08:27;101329.60;;;18.45;83.89
76229;BME280;65021;53.174;18.160;2023-06-22T01:16:24;101325.74;;;18.62;83.85
76229;BME280;65021;53.174;18.160;2023-06-22T01:18:54;101331.10;;;18.64;83.61
76229;BME280;65021;53.174;18.160;2023-06-22T01:21:23;101330.30;;;18.67;83.36
76229;BME280;65021;53.174;18.160;2023-06-22T01:24:10;101331.52;;;18.70;83.42
76229;BME280;65021;53.174;18.160;2023-06-22T01:26:42;101332.82;;;18.71;83.25
76229;BME280;65021;53.174;18.160;2023-06-22T01:29:12;101337.20;;;18.73;83.04
76229;BME280;65021;53.174;18.160;2023-06-22T01:31:40;101338.16;;;18.73;82.92
76229;BME280;65021;53.174;18.160;2023-06-22T01:34:09;101334.90;;;18.74;82.65
76229;BME280;65021;53.174;18.160;2023-06-22T01:36:37;101337.92;;;18.75;82.67
76229;BME280;65021;53.174;18.160;2023-06-22T01:39:05;101332.96;;;18.78;82.53
76229;BME280;65021;53.174;18.160;2023-06-22T01:41:34;101332.17;;;18.79;82.56
76229;BME280;65021;53.174;18.160;2023-06-22T01:44:01;101334.25;;;18.80;82.21
76229;BME280;65021;53.174;18.160;2023-06-22T01:46:29;101329.19;;;18.78;82.28
76229;BME280;65021;53.174;18.160;2023-06-22T01:48:56;101328.64;;;18.74;82.14
76229;BME280;65021;53.174;18.160;2023-06-22T01:51:22;101331.48;;;18.69;82.04
76229;BME280;65021;53.174;18.160;2023-06-22T01:53:49;101331.95;;;18.61;81.97
76229;BME280;65021;53.174;18.160;2023-06-22T01:56:17;101328.13;;;18.53;81.80
76229;BME280;65021;53.174;18.160;2023-06-22T01:58:50;101324.55;;;18.44;81.88
76229;BME280;65021;53.174;18.160;2023-06-22T02:01:24;101323.35;;;18.39;81.78
76229;BME280;65021;53.174;18.160;2023-06-22T02:04:06;101326.75;;;18.34;81.79
76229;BME280;65021;53.174;18.160;2023-06-22T02:06:36;101329.79;;;18.28;81.90
76229;BME280;65021;53.174;18.160;2023-06-22T02:09:09;101329.92;;;18.24;81.89
76229;BME280;65021;53.174;18.160;2023-06-22T02:11:40;101331.15;;;18.19;81.94
76229;BME280;65021;53.174;18.160;2023-06-22T02:14:08;101330.14;;;18.11;81.96
76229;BME280;65021;53.174;18.160;2023-06-22T02:16:35;101330.83;;;18.03;82.23
76229;BME280;65021;53.174;18.160;2023-06-22T02:19:02;101334.44;;;17.95;82.13
76229;BME280;65021;53.174;18.160;2023-06-22T02:21:32;101335.73;;;17.90;82.18
76229;BME280;65021;53.174;18.160;2023-06-22T02:23:59;101333.07;;;17.87;82.11
76229;BME280;65021;53.174;18.160;2023-06-22T02:26:26;101346.69;;;17.85;82.10
76229;BME280;65021;53.174;18.160;2023-06-22T02:28:53;101351.53;;;17.82;82.49
76229;BME280;65021;53.174;18.160;2023-06-22T02:31:20;101356.94;;;17.81;82.46
76229;BME280;65021;53.174;18.160;2023-06-22T02:33:47;101362.45;;;17.81;82.35
76229;BME280;65021;53.174;18.160;2023-06-22T02:36:14;101364.52;;;17.81;82.44
76229;BME280;65021;53.174;18.160;2023-06-22T02:38:41;101364.56;;;17.81;82.30
76229;BME280;65021;53.174;18.160;2023-06-22T02:41:17;101364.45;;;17.81;82.13
76229;BME280;65021;53.174;18.160;2023-06-22T02:43:45;101369.08;;;17.84;82.07
76229;BME280;65021;53.174;18.160;2023-06-22T02:46:13;101370.38;;;17.89;81.81
76229;BME280;65021;53.174;18.160;2023-06-22T02:48:40;101367.95;;;17.96;81.60
76229;BME280;65021;53.174;18.160;2023-06-22T02:51:07;101365.15;;;18.03;81.81
76229;BME280;65021;53.174;18.160;2023-06-22T02:53:34;101368.54;;;18.12;81.65
76229;BME280;65021;53.174;18.160;2023-06-22T02:56:02;101367.56;;;18.19;81.48
76229;BME280;65021;53.174;18.160;2023-06-22T02:58:32;101370.21;;;18.25;81.37
76229;BME280;65021;53.174;18.160;2023-06-22T03:01:05;101368.57;;;18.33;81.24
76229;BME280;65021;53.174;18.160;2023-06-22T03:03:32;101368.80;;;18.38;81.24
76229;BME280;65021;53.174;18.160;2023-06-22T03:05:58;101372.84;;;18.49;81.06
76229;BME280;65021;53.174;18.160;2023-06-22T03:08:27;101374.36;;;18.81;80.17
76229;BME280;65021;53.174;18.160;2023-06-22T03:10:55;101373.77;;;19.43;79.32
76229;BME280;65021;53.174;18.160;2023-06-22T03:13:22;101374.48;;;20.27;77.67
76229;BME280;65021;53.174;18.160;2023-06-22T03:15:48;101375.45;;;20.99;77.14
76229;BME280;65021;53.174;18.160;2023-06-22T03:18:15;101378.98;;;21.47;75.53
76229;BME280;65021;53.174;18.160;2023-06-22T03:20:42;101374.11;;;21.89;75.12
76229;BME280;65021;53.174;18.160;2023-06-22T03:23:08;101380.14;;;22.30;73.31
76229;BME280;65021;53.174;18.160;2023-06-22T03:25:35;101385.75;;;22.68;70.54
76229;BME280;65021;53.174;18.160;2023-06-22T03:28:02;101388.67;;;22.88;71.07
76229;BME280;65021;53.174;18.160;2023-06-22T03:30:28;101391.15;;;23.09;68.64
76229;BME280;65021;53.174;18.160;2023-06-22T03:32:55;101391.02;;;23.15;68.38
76229;BME280;65021;53.174;18.160;2023-06-22T03:35:21;101391.43;;;23.28;69.19
76229;BME280;65021;53.174;18.160;2023-06-22T03:37:48;101391.95;;;23.41;69.30
76229;BME280;65021;53.174;18.160;2023-06-22T03:40:15;101395.23;;;23.73;65.79
76229;BME280;65021;53.174;18.160;2023-06-22T03:42:41;101394.80;;;24.15;67.82
76229;BME280;65021;53.174;18.160;2023-06-22T03:45:08;101392.48;;;24.26;66.72
76229;BME280;65021;53.174;18.160;2023-06-22T03:47:35;101395.52;;;24.21;63.90
76229;BME280;65021;53.174;18.160;2023-06-22T03:50:02;101403.83;;;23.94;64.17
76229;BME280;65021;53.174;18.160;2023-06-22T03:52:30;101410.05;;;23.52;64.83
76229;BME280;65021;53.174;18.160;2023-06-22T03:54:56;101415.40;;;22.94;64.35
76229;BME280;65021;53.174;18.160;2023-06-22T03:57:23;101418.21;;;22.69;66.14
76229;BME280;65021;53.174;18.160;2023-06-22T03:59:49;101417.42;;;22.43;65.58
76229;BME280;65021;53.174;18.160;2023-06-22T04:02:16;101417.33;;;22.29;66.64
76229;BME280;65021;53.174;18.160;2023-06-22T04:04:42;101412.77;;;22.20;66.73
76229;BME280;65021;53.174;18.160;2023-06-22T04:07:09;101415.31;;;22.10;66.60
76229;BME280;65021;53.174;18.160;2023-06-22T04:09:36;101413.69;;;22.06;67.07
76229;BME280;65021;53.174;18.160;2023-06-22T04:12:02;101415.16;;;21.95;66.15
76229;BME280;65021;53.174;18.160;2023-06-22T04:14:29;101422.06;;;21.88;67.13
76229;BME280;65021;53.174;18.160;2023-06-22T04:16:56;101420.16;;;21.89;66.81
76229;BME280;65021;53.174;18.160;2023-06-22T04:19:22;101412.48;;;21.99;67.32
76229;BME280;65021;53.174;18.160;2023-06-22T04:21:49;101414.02;;;22.12;67.33
76229;BME280;65021;53.174;18.160;2023-06-22T04:24:16;101413.43;;;22.08;66.21
76229;BME280;65021;53.174;18.160;2023-06-22T04:26:42;101418.67;;;22.05;66.40
76229;BME280;65021;53.174;18.160;2023-06-22T04:29:11;101423.96;;;22.10;66.89
76229;BME280;65021;53.174;18.160;2023-06-22T04:31:38;101425.19;;;22.30;66.80
76229;BME280;65021;53.174;18.160;2023-06-22T04:34:06;101423.23;;;22.48;66.11
76229;BME280;65021;53.174;18.160;2023-06-22T04:36:42;101418.73;;;22.62;66.10
76229;BME280;65021;53.174;18.160;2023-06-22T04:39:10;101412.78;;;22.73;65.92
76229;BME280;65021;53.174;18.160;2023-06-22T04:41:38;101410.41;;;22.85;65.30
76229;BME280;65021;53.174;18.160;2023-06-22T04:44:20;101412.25;;;22.64;64.36
76229;BME280;65021;53.174;18.160;2023-06-22T04:46:54;101409.16;;;22.66;65.11
76229;BME280;65021;53.174;18.160;2023-06-22T04:49:24;101408.84;;;22.71;65.02
76229;BME280;65021;53.174;18.160;2023-06-22T04:52:00;101415.70;;;22.86;65.11
76229;BME280;65021;53.174;18.160;2023-06-22T04:54:27;101420.23;;;22.84;63.47
76229;BME280;65021;53.174;18.160;2023-06-22T04:56:53;101412.80;;;22.66;63.91
76229;BME280;65021;53.174;18.160;2023-06-22T04:59:24;101417.10;;;22.72;64.34
76229;BME280;65021;53.174;18.160;2023-06-22T05:01:58;101423.03;;;22.86;64.24
76229;BME280;65021;53.174;18.160;2023-06-22T05:04:26;101425.17;;;23.09;64.32
76229;BME280;65021;53.174;18.160;2023-06-22T05:06:54;101433.66;;;23.22;62.92
76229;BME280;65021;53.174;18.160;2023-06-22T05:09:21;101427.17;;;23.03;62.53
76229;BME280;65021;53.174;18.160;2023-06-22T05:11:47;101429.06;;;23.02;63.84
76229;BME280;65021;53.174;18.160;2023-06-22T05:14:14;101427.41;;;23.02;62.78
76229;BME280;65021;53.174;18.160;2023-06-22T05:16:41;101430.58;;;22.89;63.06
76229;BME280;65021;53.174;18.160;2023-06-22T05:19:08;101434.88;;;22.91;63.24
76229;BME280;65021;53.174;18.160;2023-06-22T05:21:35;101444.37;;;22.97;63.12
76229;BME280;65021;53.174;18.160;2023-06-22T05:24:02;101448.17;;;22.98;62.52
76229;BME280;65021;53.174;18.160;2023-06-22T05:26:31;101448.44;;;22.88;62.72
76229;BME280;65021;53.174;18.160;2023-06-22T05:28:58;101448.16;;;22.73;62.94
76229;BME280;65021;53.174;18.160;2023-06-22T05:31:25;101445.85;;;22.93;63.35
76229;BME280;65021;53.174;18.160;2023-06-22T05:33:53;101447.38;;;23.22;62.58
76229;BME280;65021;53.174;18.160;2023-06-22T05:36:21;101448.73;;;23.43;62.67
76229;BME280;65021;53.174;18.160;2023-06-22T05:38:52;101456.14;;;23.48;61.68
76229;BME280;65021;53.174;18.160;2023-06-22T05:41:19;101450.35;;;23.50;62.82
76229;BME280;65021;53.174;18.160;2023-06-22T05:43:45;101449.60;;;23.71;62.51
76229;BME280;65021;53.174;18.160;2023-06-22T05:46:12;101452.91;;;23.98;62.35
76229;BME280;65021;53.174;18.160;2023-06-22T05:48:39;101461.97;;;24.16;61.18
76229;BME280;65021;53.174;18.160;2023-06-22T05:51:05;101462.70;;;24.27;61.06
76229;BME280;65021;53.174;18.160;2023-06-22T05:53:32;101449.86;;;24.43;60.73
76229;BME280;65021;53.174;18.160;2023-06-22T05:55:58;101443.47;;;24.42;59.09
76229;BME280;65021;53.174;18.160;2023-06-22T05:58:25;101445.43;;;24.29;58.40
76229;BME280;65021;53.174;18.160;2023-06-22T06:00:52;101453.92;;;24.13;58.72
76229;BME280;65021;53.174;18.160;2023-06-22T06:03:18;101452.88;;;24.16;59.45
76229;BME280;65021;53.174;18.160;2023-06-22T06:05:45;101445.17;;;24.35;59.21
76229;BME280;65021;53.174;18.160;2023-06-22T06:08:12;101445.36;;;24.61;58.62
76229;BME280;65021;53.174;18.160;2023-06-22T06:10:38;101449.46;;;24.83;58.40
76229;BME280;65021;53.174;18.160;2023-06-22T06:13:05;101445.54;;;25.04;57.56
76229;BME280;65021;53.174;18.160;2023-06-22T06:15:32;101448.00;;;25.03;56.93
76229;BME280;65021;53.174;18.160;2023-06-22T06:17:59;101447.50;;;24.84;55.76
76229;BME280;65021;53.174;18.160;2023-06-22T06:20:26;101441.75;;;24.91;55.59
76229;BME280;65021;53.174;18.160;2023-06-22T06:22:54;101436.77;;;25.00;56.18
76229;BME280;65021;53.174;18.160;2023-06-22T06:25:21;101438.21;;;25.11;54.55
76229;BME280;65021;53.174;18.160;2023-06-22T06:27:49;101439.04;;;25.22;55.40
76229;BME280;65021;53.174;18.160;2023-06-22T06:30:18;101445.13;;;25.51;55.41
76229;BME280;65021;53.174;18.160;2023-06-22T06:32:45;101452.76;;;25.66;54.70
76229;BME280;65021;53.174;18.160;2023-06-22T06:35:14;101461.82;;;25.59;52.60
76229;BME280;65021;53.174;18.160;2023-06-22T06:37:42;101458.02;;;25.54;53.04
76229;BME280;65021;53.174;18.160;2023-06-22T06:40:11;101458.72;;;25.54;53.91
76229;BME280;65021;53.174;18.160;2023-06-22T06:42:39;101457.92;;;25.81;53.33
76229;BME280;65021;53.174;18.160;2023-06-22T06:45:08;101450.94;;;25.88;51.52
76229;BME280;65021;53.174;18.160;2023-06-22T06:47:35;101446.57;;;25.71;50.36
76229;BME280;65021;53.174;18.160;2023-06-22T06:50:03;101444.52;;;25.34;50.47
76229;BME280;65021;53.174;18.160;2023-06-22T06:52:30;101451.84;;;25.04;50.78
76229;BME280;65021;53.174;18.160;2023-06-22T06:54:57;101447.04;;;25.01;51.73
76229;BME280;65021;53.174;18.160;2023-06-22T06:57:23;101446.84;;;25.28;52.05
76229;BME280;65021;53.174;18.160;2023-06-22T06:59:50;101443.40;;;25.27;50.43
76229;BME280;65021;53.174;18.160;2023-06-22T07:02:16;101440.72;;;25.39;50.69
76229;BME280;65021;53.174;18.160;2023-06-22T07:04:43;101440.43;;;25.48;49.80
76229;BME280;65021;53.174;18.160;2023-06-22T07:07:09;101445.92;;;25.49;49.87
76229;BME280;65021;53.174;18.160;2023-06-22T07:09:36;101445.80;;;25.68;50.03
76229;BME280;65021;53.174;18.160;2023-06-22T07:12:03;101446.70;;;26.25;49.69
76229;BME280;65021;53.174;18.160;2023-06-22T07:14:29;101433.95;;;26.51;47.33
76229;BME280;65021;53.174;18.160;2023-06-22T07:16:58;101431.78;;;26.91;48.12
76229;BME280;65021;53.174;18.160;2023-06-22T07:19:25;101434.55;;;27.07;47.97
76229;BME280;65021;53.174;18.160;2023-06-22T07:21:54;101441.21;;;26.81;47.01
76229;BME280;65021;53.174;18.160;2023-06-22T07:24:21;101449.40;;;26.61;47.87
76229;BME280;65021;53.174;18.160;2023-06-22T07:26:49;101452.31;;;26.78;48.48
76229;BME280;65021;53.174;18.160;2023-06-22T07:29:17;101447.55;;;26.97;47.63
76229;BME280;65021;53.174;18.160;2023-06-22T07:31:44;101451.36;;;26.96;46.71
76229;BME280;65021;53.174;18.160;2023-06-22T07:34:11;101450.38;;;26.75;46.44
76229;BME280;65021;53.174;18.160;2023-06-22T07:36:38;101451.48;;;26.73;47.28
76229;BME280;65021;53.174;18.160;2023-06-22T07:39:04;101453.05;;;26.70;46.47
76229;BME280;65021;53.174;18.160;2023-06-22T07:41:32;101454.55;;;26.59;47.09
76229;BME280;65021;53.174;18.160;2023-06-22T07:43:58;101457.59;;;26.58;46.73
76229;BME280;65021;53.174;18.160;2023-06-22T07:46:25;101462.20;;;26.47;46.69
76229;BME280;65021;53.174;18.160;2023-06-22T07:48:51;101466.19;;;26.51;46.49
76229;BME280;65021;53.174;18.160;2023-06-22T07:51:18;101465.86;;;26.50;46.46
76229;BME280;65021;53.174;18.160;2023-06-22T07:53:44;101469.23;;;26.57;46.62
76229;BME280;65021;53.174;18.160;2023-06-22T07:56:11;101472.34;;;26.46;45.06
76229;BME280;65021;53.174;18.160;2023-06-22T07:58:38;101471.66;;;26.41;45.77
76229;BME280;65021;53.174;18.160;2023-06-22T08:01:05;101471.06;;;26.11;44.66
76229;BME280;65021;53.174;18.160;2023-06-22T08:03:32;101464.48;;;25.96;45.93
76229;BME280;65021;53.174;18.160;2023-06-22T08:05:58;101465.30;;;26.12;46.06
76229;BME280;65021;53.174;18.160;2023-06-22T08:08:25;101469.64;;;25.83;46.00
76229;BME280;65021;53.174;18.160;2023-06-22T08:10:52;101467.90;;;25.65;46.44
76229;BME280;65021;53.174;18.160;2023-06-22T08:13:18;101475.38;;;25.58;46.83
76229;BME280;65021;53.174;18.160;2023-06-22T08:15:45;101474.16;;;25.57;47.03
76229;BME280;65021;53.174;18.160;2023-06-22T08:18:12;101475.56;;;25.49;46.68
76229;BME280;65021;53.174;18.160;2023-06-22T08:20:39;101471.61;;;25.66;46.03
76229;BME280;65021;53.174;18.160;2023-06-22T08:23:05;101471.70;;;25.70;45.60
76229;BME280;65021;53.174;18.160;2023-06-22T08:25:33;101474.95;;;25.80;45.79
76229;BME280;65021;53.174;18.160;2023-06-22T08:28:02;101487.29;;;25.86;45.10
76229;BME280;65021;53.174;18.160;2023-06-22T08:30:28;101483.99;;;25.82;45.42
76229;BME280;65021;53.174;18.160;2023-06-22T08:32:55;101471.48;;;26.00;44.79
76229;BME280;65021;53.174;18.160;2023-06-22T08:35:22;101466.84;;;26.23;44.81
76229;BME280;65021;53.174;18.160;2023-06-22T08:37:49;101471.40;;;26.32;44.48
76229;BME280;65021;53.174;18.160;2023-06-22T08:40:19;101471.46;;;26.42;44.51
76229;BME280;65021;53.174;18.160;2023-06-22T08:42:47;101474.27;;;26.58;43.88
76229;BME280;65021;53.174;18.160;2023-06-22T08:45:14;101476.66;;;26.55;43.52
76229;BME280;65021;53.174;18.160;2023-06-22T08:47:41;101474.98;;;26.50;43.00
76229;BME280;65021;53.174;18.160;2023-06-22T08:50:09;101472.33;;;26.58;43.39
76229;BME280;65021;53.174;18.160;2023-06-22T08:52:37;101477.97;;;26.51;42.33
76229;BME280;65021;53.174;18.160;2023-06-22T08:55:04;101476.88;;;26.22;42.55
76229;BME280;65021;53.174;18.160;2023-06-22T08:57:31;101465.21;;;26.18;43.45
76229;BME280;65021;53.174;18.160;2023-06-22T08:59:59;101466.73;;;26.34;43.78
76229;BME280;65021;53.174;18.160;2023-06-22T09:02:26;101464.41;;;26.44;43.18
76229;BME280;65021;53.174;18.160;2023-06-22T09:04:59;101466.42;;;26.45;43.23
76229;BME280;65021;53.174;18.160;2023-06-22T09:07:26;101473.55;;;26.47;43.59
76229;BME280;65021;53.174;18.160;2023-06-22T09:09:52;101474.55;;;26.60;43.11
76229;BME280;65021;53.174;18.160;2023-06-22T09:12:20;101468.13;;;26.71;43.15
76229;BME280;65021;53.174;18.160;2023-06-22T09:14:50;101466.92;;;26.82;42.56
76229;BME280;65021;53.174;18.160;2023-06-22T09:17:17;101467.46;;;26.62;40.77
76229;BME280;65021;53.174;18.160;2023-06-22T09:19:44;101461.19;;;26.53;41.78
76229;BME280;65021;53.174;18.160;2023-06-22T09:22:10;101459.98;;;26.62;42.12
76229;BME280;65021;53.174;18.160;2023-06-22T09:24:37;101446.18;;;26.74;42.20
76229;BME280;65021;53.174;18.160;2023-06-22T09:27:03;101447.42;;;26.78;41.14
76229;BME280;65021;53.174;18.160;2023-06-22T09:29:30;101448.89;;;26.73;40.41
76229;BME280;65021;53.174;18.160;2023-06-22T09:32:00;101446.90;;;26.75;40.96
76229;BME280;65021;53.174;18.160;2023-06-22T09:34:27;101431.55;;;26.65;40.18
76229;BME280;65021;53.174;18.160;2023-06-22T09:36:53;101424.38;;;26.64;40.50
76229;BME280;65021;53.174;18.160;2023-06-22T09:39:20;101424.24;;;26.72;40.78
76229;BME280;65021;53.174;18.160;2023-06-22T09:41:46;101428.23;;;26.75;40.14
76229;BME280;65021;53.174;18.160;2023-06-22T09:44:13;101431.99;;;26.77;40.62
76229;BME280;65021;53.174;18.160;2023-06-22T09:46:39;101429.52;;;26.77;40.77
76229;BME280;65021;53.174;18.160;2023-06-22T09:49:06;101429.63;;;26.86;41.06
76229;BME280;65021;53.174;18.160;2023-06-22T09:51:33;101429.23;;;26.97;40.94
76229;BME280;65021;53.174;18.160;2023-06-22T09:53:59;101429.27;;;26.99;40.93
76229;BME280;65021;53.174;18.160;2023-06-22T09:56:26;101431.95;;;26.88;41.01
76229;BME280;65021;53.174;18.160;2023-06-22T09:58:54;101433.94;;;26.79;40.63
76229;BME280;65021;53.174;18.160;2023-06-22T10:01:21;101427.95;;;26.88;41.06
76229;BME280;65021;53.174;18.160;2023-06-22T10:03:48;101429.13;;;27.06;40.32
76229;BME280;65021;53.174;18.160;2023-06-22T10:06:14;101433.27;;;27.11;39.50
76229;BME280;65021;53.174;18.160;2023-06-22T10:08:41;101436.10;;;27.07;38.87
76229;BME280;65021;53.174;18.160;2023-06-22T10:11:07;101441.11;;;27.08;38.87
76229;BME280;65021;53.174;18.160;2023-06-22T10:13:34;101439.55;;;27.00;38.40
76229;BME280;65021;53.174;18.160;2023-06-22T10:16:01;101430.67;;;26.95;38.74
76229;BME280;65021;53.174;18.160;2023-06-22T10:18:27;101432.98;;;27.01;39.01
76229;BME280;65021;53.174;18.160;2023-06-22T10:20:54;101427.58;;;27.08;38.66
76229;BME280;65021;53.174;18.160;2023-06-22T10:23:20;101426.52;;;27.09;38.02
76229;BME280;65021;53.174;18.160;2023-06-22T10:25:47;101425.82;;;27.14;38.07
76229;BME280;65021;53.174;18.160;2023-06-22T10:28:14;101426.33;;;27.09;38.19
76229;BME280;65021;53.174;18.160;2023-06-22T10:30:41;101422.20;;;27.10;38.52
76229;BME280;65021;53.174;18.160;2023-06-22T10:33:11;101423.45;;;27.16;38.64
76229;BME280;65021;53.174;18.160;2023-06-22T10:35:38;101417.16;;;27.25;38.84
76229;BME280;65021;53.174;18.160;2023-06-22T10:38:05;101414.67;;;27.24;38.19
76229;BME280;65021;53.174;18.160;2023-06-22T10:40:32;101413.41;;;27.21;38.69
76229;BME280;65021;53.174;18.160;2023-06-22T10:42:59;101419.90;;;27.20;38.46
76229;BME280;65021;53.174;18.160;2023-06-22T10:45:26;101419.21;;;27.12;38.81
76229;BME280;65021;53.174;18.160;2023-06-22T10:47:53;101421.22;;;27.19;38.81
76229;BME280;65021;53.174;18.160;2023-06-22T10:50:20;101416.92;;;27.18;38.20
76229;BME280;65021;53.174;18.160;2023-06-22T10:52:46;101410.09;;;27.05;38.59
76229;BME280;65021;53.174;18.160;2023-06-22T10:55:13;101411.59;;;27.08;38.81
76229;BME280;65021;53.174;18.160;2023-06-22T10:57:39;101409.55;;;27.17;38.17
76229;BME280;65021;53.174;18.160;2023-06-22T11:00:10;101402.86;;;27.24;38.73
76229;BME280;65021;53.174;18.160;2023-06-22T11:02:37;101403.02;;;27.28;38.63
76229;BME280;65021;53.174;18.160;2023-06-22T11:05:04;101402.04;;;27.34;37.93
76229;BME280;65021;53.174;18.160;2023-06-22T11:07:31;101405.61;;;27.37;37.65
76229;BME280;65021;53.174;18.160;2023-06-22T11:09:59;101406.57;;;27.31;37.68
76229;BME280;65021;53.174;18.160;2023-06-22T11:12:25;101403.51;;;27.24;38.11
76229;BME280;65021;53.174;18.160;2023-06-22T11:14:52;101395.98;;;27.30;37.46
76229;BME280;65021;53.174;18.160;2023-06-22T11:17:18;101397.46;;;27.43;37.97
76229;BME280;65021;53.174;18.160;2023-06-22T11:19:45;101398.14;;;27.57;38.87
76229;BME280;65021;53.174;18.160;2023-06-22T11:22:13;101397.73;;;27.59;39.17
76229;BME280;65021;53.174;18.160;2023-06-22T11:24:39;101400.02;;;27.49;38.74
76229;BME280;65021;53.174;18.160;2023-06-22T11:27:06;101400.92;;;27.41;37.32
76229;BME280;65021;53.174;18.160;2023-06-22T11:29:32;101400.41;;;27.43;37.35
76229;BME280;65021;53.174;18.160;2023-06-22T11:31:59;101392.38;;;27.52;37.09
76229;BME280;65021;53.174;18.160;2023-06-22T11:34:25;101395.48;;;27.55;36.87
76229;BME280;65021;53.174;18.160;2023-06-22T11:36:52;101398.52;;;27.62;36.96
76229;BME280;65021;53.174;18.160;2023-06-22T11:39:18;101400.33;;;27.62;36.82
76229;BME280;65021;53.174;18.160;2023-06-22T11:41:46;101396.23;;;27.58;36.25
76229;BME280;65021;53.174;18.160;2023-06-22T11:44:12;101392.79;;;27.61;36.57
76229;BME280;65021;53.174;18.160;2023-06-22T11:46:39;101396.22;;;27.70;36.40
76229;BME280;65021;53.174;18.160;2023-06-22T11:49:06;101394.11;;;27.74;37.19
76229;BME280;65021;53.174;18.160;2023-06-22T11:51:32;101395.02;;;27.74;37.65
76229;BME280;65021;53.174;18.160;2023-06-22T11:53:59;101387.71;;;27.71;37.41
76229;BME280;65021;53.174;18.160;2023-06-22T11:56:25;101387.17;;;27.76;36.54
76229;BME280;65021;53.174;18.160;2023-06-22T11:58:54;101389.23;;;27.88;36.72
76229;BME280;65021;53.174;18.160;2023-06-22T12:01:20;101384.80;;;27.88;36.71
76229;BME280;65021;53.174;18.160;2023-06-22T12:03:47;101388.30;;;27.86;36.50
76229;BME280;65021;53.174;18.160;2023-06-22T12:06:14;101386.77;;;27.64;36.66
76229;BME280;65021;53.174;18.160;2023-06-22T12:08:41;101383.49;;;27.50;37.61
76229;BME280;65021;53.174;18.160;2023-06-22T12:11:07;101376.30;;;27.68;37.36
76229;BME280;65021;53.174;18.160;2023-06-22T12:13:34;101374.55;;;27.63;35.64
76229;BME280;65021;53.174;18.160;2023-06-22T12:16:01;101371.84;;;27.46;36.71
76229;BME280;65021;53.174;18.160;2023-06-22T12:18:27;101370.52;;;27.46;36.91
76229;BME280;65021;53.174;18.160;2023-06-22T12:20:54;101368.41;;;27.54;36.42
76229;BME280;65021;53.174;18.160;2023-06-22T12:23:20;101359.02;;;27.62;36.44
76229;BME280;65021;53.174;18.160;2023-06-22T12:25:47;101356.07;;;27.76;36.08
76229;BME280;65021;53.174;18.160;2023-06-22T12:28:13;101357.23;;;27.87;36.26
76229;BME280;65021;53.174;18.160;2023-06-22T12:30:40;101360.44;;;27.90;35.65
76229;BME280;65021;53.174;18.160;2023-06-22T12:33:06;101352.95;;;27.61;35.71
76229;BME280;65021;53.174;18.160;2023-06-22T12:35:33;101354.88;;;27.49;36.27
76229;BME280;65021;53.174;18.160;2023-06-22T12:37:59;101356.54;;;27.53;36.21
76229;BME280;65021;53.174;18.160;2023-06-22T12:40:26;101354.02;;;27.59;36.20
76229;BME280;65021;53.174;18.160;2023-06-22T12:42:52;101348.39;;;27.78;35.74
76229;BME280;65021;53.174;18.160;2023-06-22T12:45:19;101346.98;;;27.96;35.26
76229;BME280;65021;53.174;18.160;2023-06-22T12:47:47;101344.90;;;27.95;35.26